Terminal Aerodrome Forecast
Issued by NWS Corpus Christi, TX

Home | Current Version | Previous Version | Text Only | Print | Product List | Glossary On
Versions: 1 2 3 4 5 6 7 8 9 10 11
643
FTUS44 KCRP 081728
TAFCRP
TAF
KCRP 081728Z 0818/0918 02020G28KT P6SM BKN250
     FM082300 35011KT P6SM SCT250
     FM090200 VRB06KT P6SM FEW250=

USA.gov is the U.S. government's official web portal to all federal, state and local government web resources and services.